createdAt,value
2023-03-05T00:00:51.622Z,14.80
2023-03-05T00:03:18.412Z,13.30
2023-03-05T00:05:45.117Z,13.20
2023-03-05T00:08:13.221Z,13.40
2023-03-05T00:10:39.905Z,13.70
2023-03-05T00:13:07.879Z,14.70
2023-03-05T00:15:35.000Z,12.20
2023-03-05T00:18:01.716Z,15.30
2023-03-05T00:20:28.498Z,16.00
2023-03-05T00:22:55.210Z,11.60
2023-03-05T00:25:21.942Z,11.90
2023-03-05T00:27:48.656Z,13.00
2023-03-05T00:30:15.363Z,12.00
2023-03-05T00:32:42.323Z,9.50
2023-03-05T00:35:09.604Z,12.20
2023-03-05T00:37:36.371Z,11.70
2023-03-05T00:40:05.044Z,12.90
2023-03-05T00:42:33.679Z,9.80
2023-03-05T00:45:00.450Z,12.00
2023-03-05T00:47:28.572Z,16.30
2023-03-05T00:49:55.278Z,11.90
2023-03-05T00:52:22.030Z,14.40
2023-03-05T00:54:48.947Z,13.80
2023-03-05T00:57:15.722Z,13.40
2023-03-05T00:59:42.440Z,12.10
2023-03-05T01:02:09.523Z,12.40
2023-03-05T01:04:36.604Z,10.80
2023-03-05T01:07:03.273Z,15.10
2023-03-05T01:09:30.665Z,11.30
2023-03-05T01:11:57.526Z,12.20
2023-03-05T01:14:24.283Z,12.10
2023-03-05T01:16:51.011Z,10.90
2023-03-05T01:21:59.445Z,12.50
2023-03-05T01:24:26.614Z,13.20
2023-03-05T01:26:53.366Z,12.30
2023-03-05T01:29:20.577Z,12.30
2023-03-05T01:31:47.288Z,15.20
2023-03-05T01:34:13.993Z,15.20
2023-03-05T01:36:43.801Z,13.80
2023-03-05T01:41:37.290Z,11.50
2023-03-05T01:44:04.090Z,14.80
2023-03-05T01:46:38.790Z,17.30
2023-03-05T01:49:28.802Z,15.00
2023-03-05T01:52:05.027Z,15.80
2023-03-05T01:54:36.845Z,17.30
2023-03-05T01:57:15.565Z,15.70
2023-03-05T01:59:44.794Z,14.00
2023-03-05T02:02:13.290Z,15.60
2023-03-05T02:05:05.423Z,15.50
2023-03-05T02:07:33.764Z,14.90
2023-03-05T02:10:00.460Z,17.60
2023-03-05T02:12:27.481Z,14.30
2023-03-05T02:14:59.452Z,15.80
2023-03-05T02:17:29.516Z,17.00
2023-03-05T02:22:29.323Z,16.30
2023-03-05T02:24:56.073Z,16.80
2023-03-05T02:27:35.011Z,15.00
2023-03-05T02:30:02.698Z,16.40
2023-03-05T02:32:29.508Z,17.30
2023-03-05T02:34:56.248Z,18.10
2023-03-05T02:37:23.035Z,14.90
2023-03-05T02:39:49.757Z,15.60
2023-03-05T02:42:16.448Z,20.90
2023-03-05T02:44:43.147Z,13.30
2023-03-05T02:47:09.860Z,14.20
2023-03-05T02:49:36.586Z,14.10
2023-03-05T02:52:03.473Z,9.50
2023-03-05T02:54:30.165Z,11.90
2023-03-05T02:56:56.874Z,9.30
2023-03-05T02:59:23.736Z,9.20
2023-03-05T03:01:50.536Z,9.20
2023-03-05T03:04:17.237Z,9.10
2023-03-05T03:06:44.503Z,8.20
2023-03-05T03:09:11.203Z,8.00
2023-03-05T03:11:37.886Z,7.40
2023-03-05T03:14:04.705Z,10.10
2023-03-05T03:16:31.452Z,10.30
2023-03-05T03:18:58.269Z,7.40
2023-03-05T03:21:27.088Z,7.00
2023-03-05T03:23:53.866Z,7.10
2023-03-05T03:26:20.912Z,6.10
2023-03-05T03:28:48.176Z,6.80
2023-03-05T03:31:15.138Z,7.60
2023-03-05T03:33:42.014Z,7.30
2023-03-05T03:36:09.184Z,8.80
2023-03-05T03:38:35.915Z,7.00
2023-03-05T03:41:02.633Z,8.30
2023-03-05T03:43:29.590Z,8.80
2023-03-05T03:45:56.323Z,9.30
2023-03-05T03:48:23.095Z,9.00
2023-03-05T03:50:49.847Z,11.90
2023-03-05T03:53:17.506Z,9.50
2023-03-05T03:55:46.598Z,12.70
2023-03-05T03:58:14.282Z,12.80
2023-03-05T04:00:41.692Z,14.30
2023-03-05T04:03:09.050Z,13.70
2023-03-05T04:05:35.855Z,18.40
2023-03-05T04:08:03.571Z,14.00
2023-03-05T04:10:30.394Z,13.90
2023-03-05T04:12:57.120Z,14.40
2023-03-05T04:15:23.923Z,12.80
2023-03-05T04:17:50.783Z,13.10
2023-03-05T04:20:17.783Z,12.00
2023-03-05T04:22:44.690Z,9.80
2023-03-05T04:25:11.517Z,11.20
2023-03-05T04:27:40.453Z,7.90
2023-03-05T04:30:09.652Z,11.00
2023-03-05T04:32:36.639Z,8.20
2023-03-05T04:35:03.821Z,10.80
2023-03-05T04:37:30.529Z,9.30
2023-03-05T04:39:57.612Z,7.80
2023-03-05T04:42:24.460Z,9.90
2023-03-05T04:44:51.728Z,8.70
2023-03-05T04:47:19.915Z,9.80
2023-03-05T04:49:46.699Z,7.80
2023-03-05T04:52:14.206Z,13.90
2023-03-05T04:54:41.760Z,11.30
2023-03-05T04:57:08.702Z,12.40
2023-03-05T04:59:36.568Z,14.10
2023-03-05T05:02:03.809Z,14.50
2023-03-05T05:04:31.425Z,13.90
2023-03-05T05:06:58.868Z,19.00
2023-03-05T05:09:26.085Z,15.90
2023-03-05T05:11:53.022Z,18.70
2023-03-05T05:14:19.845Z,16.70
2023-03-05T05:16:46.561Z,21.00
2023-03-05T05:19:13.567Z,17.80
2023-03-05T05:21:40.276Z,20.10
2023-03-05T05:24:07.236Z,17.60
2023-03-05T05:26:34.028Z,16.50
2023-03-05T05:29:00.801Z,15.10
2023-03-05T05:31:27.899Z,17.80
2023-03-05T05:33:54.631Z,16.40
2023-03-05T05:36:22.658Z,12.20
2023-03-05T05:38:50.323Z,14.80
2023-03-05T05:41:19.286Z,18.70
2023-03-05T05:43:46.099Z,17.30
2023-03-05T05:46:15.816Z,14.60
2023-03-05T05:48:43.532Z,17.10
2023-03-05T05:51:16.348Z,14.30
2023-03-05T05:53:44.258Z,15.60
2023-03-05T05:56:13.106Z,16.40
2023-03-05T05:58:41.460Z,13.80
2023-03-05T06:01:30.208Z,16.70
2023-03-05T06:03:57.618Z,16.20
2023-03-05T06:06:26.554Z,13.80
2023-03-05T06:08:53.803Z,20.00
2023-03-05T06:11:21.178Z,19.40
2023-03-05T06:13:49.280Z,20.70
2023-03-05T06:16:19.444Z,24.90
2023-03-05T06:18:46.478Z,28.00
2023-03-05T06:21:16.656Z,19.10
2023-03-05T06:23:45.534Z,21.20
2023-03-05T06:26:15.415Z,19.50
2023-03-05T06:31:15.672Z,22.90
2023-03-05T06:33:42.931Z,23.80
2023-03-05T06:36:12.905Z,23.40
2023-03-05T06:38:39.892Z,22.20
2023-03-05T06:41:14.660Z,20.20
2023-03-05T06:43:44.417Z,23.60
2023-03-05T06:46:23.344Z,18.40
2023-03-05T06:48:51.202Z,23.80
2023-03-05T06:51:41.721Z,18.80
2023-03-05T06:54:12.146Z,17.90
2023-03-05T06:56:40.993Z,16.50
2023-03-05T06:59:08.724Z,18.50
2023-03-05T07:01:35.643Z,23.20
2023-03-05T07:04:03.358Z,21.10
2023-03-05T07:06:33.424Z,20.60
2023-03-05T07:09:01.586Z,27.10
2023-03-05T07:11:29.277Z,22.80
2023-03-05T07:13:56.649Z,22.40
2023-03-05T07:16:26.532Z,24.90
2023-03-05T07:21:26.652Z,25.40
2023-03-05T07:23:54.655Z,23.00
2023-03-05T07:26:22.297Z,20.60
2023-03-05T07:28:49.243Z,18.40
2023-03-05T07:31:19.432Z,17.50
2023-03-05T07:33:50.379Z,17.60
2023-03-05T07:36:18.068Z,24.20
2023-03-05T07:38:45.824Z,17.60
2023-03-05T07:41:19.779Z,17.60
2023-03-05T07:43:48.843Z,16.30
2023-03-05T07:46:17.877Z,21.50
2023-03-05T07:48:45.762Z,17.80
2023-03-05T07:51:15.961Z,17.20
2023-03-05T07:53:44.085Z,19.50
2023-03-05T07:56:11.195Z,16.40
2023-03-05T07:58:38.045Z,17.90
2023-03-05T08:01:05.019Z,18.20
2023-03-05T08:03:31.856Z,15.40
2023-03-05T08:05:58.647Z,16.70
2023-03-05T08:08:25.338Z,15.20
2023-03-05T08:10:52.502Z,17.50
2023-03-05T08:13:19.227Z,19.10
2023-03-05T08:15:46.310Z,20.60
2023-03-05T08:18:13.955Z,19.50
2023-03-05T08:20:40.893Z,18.90
2023-03-05T08:23:07.821Z,18.80
2023-03-05T08:25:34.635Z,19.00
2023-03-05T08:28:01.375Z,16.50
2023-03-05T08:30:28.321Z,18.90
2023-03-05T08:32:55.680Z,15.80
2023-03-05T08:35:23.584Z,18.30
2023-03-05T08:37:50.482Z,17.30
2023-03-05T08:40:20.676Z,18.70
2023-03-05T08:42:47.654Z,18.70
2023-03-05T08:45:14.532Z,17.10
2023-03-05T08:47:41.311Z,17.80
2023-03-05T08:50:09.847Z,19.10
2023-03-05T08:52:36.582Z,21.00
2023-03-05T08:55:03.609Z,21.10
2023-03-05T08:57:30.381Z,19.90
2023-03-05T08:59:57.154Z,21.20
2023-03-05T09:02:24.081Z,16.50
2023-03-05T09:04:50.886Z,19.00
2023-03-05T09:07:17.561Z,18.70
2023-03-05T09:09:44.567Z,17.30
2023-03-05T09:12:14.032Z,14.40
2023-03-05T09:14:41.284Z,16.60
2023-03-05T09:17:09.582Z,13.80
2023-03-05T09:19:36.691Z,15.60
2023-03-05T09:22:03.723Z,15.70
2023-03-05T09:24:30.893Z,17.50
2023-03-05T09:27:00.515Z,19.00
2023-03-05T09:29:28.115Z,15.40
2023-03-05T09:31:55.093Z,20.20
2023-03-05T09:34:22.491Z,18.20
2023-03-05T09:36:49.238Z,19.90
2023-03-05T09:39:17.243Z,17.50
2023-03-05T09:41:57.960Z,16.50
2023-03-05T09:44:36.293Z,20.40
2023-03-05T09:47:17.242Z,19.80
2023-03-05T09:49:57.500Z,20.20
2023-03-05T09:52:43.708Z,20.60
2023-03-05T09:55:44.815Z,18.60
2023-03-05T09:58:17.277Z,20.90
2023-03-05T10:01:01.073Z,18.90
2023-03-05T10:03:57.763Z,21.00
2023-03-05T10:06:55.334Z,21.30
2023-03-05T10:09:46.015Z,18.10
2023-03-05T10:12:12.684Z,22.60
2023-03-05T10:14:41.701Z,21.60
2023-03-05T10:17:11.465Z,22.10
2023-03-05T10:19:38.136Z,25.00
2023-03-05T10:22:20.968Z,25.90
2023-03-05T10:24:56.728Z,21.90
2023-03-05T10:27:39.948Z,22.10
2023-03-05T10:30:26.400Z,23.50
2023-03-05T10:32:57.696Z,24.50
2023-03-05T10:35:36.525Z,22.50
2023-03-05T10:38:26.686Z,21.30
2023-03-05T10:40:56.361Z,22.80
2023-03-05T10:43:42.964Z,22.80
2023-03-05T10:46:18.875Z,24.20
2023-03-05T10:49:06.616Z,21.70
2023-03-05T10:51:49.956Z,21.10
2023-03-05T10:54:33.707Z,19.90
2023-03-05T10:57:27.186Z,23.00
2023-03-05T11:00:20.495Z,26.20
2023-03-05T11:02:59.353Z,21.30
2023-03-05T11:05:35.148Z,24.60
2023-03-05T11:08:24.829Z,24.50
2023-03-05T11:11:05.638Z,22.00
2023-03-05T11:13:33.927Z,27.30
2023-03-05T11:16:04.037Z,22.90
2023-03-05T11:18:34.741Z,19.10
2023-03-05T11:21:28.367Z,24.60
2023-03-05T11:24:24.785Z,21.30
2023-03-05T11:26:54.006Z,20.60
2023-03-05T11:29:24.844Z,16.70
2023-03-05T11:31:52.208Z,20.20
2023-03-05T11:34:18.882Z,18.00
2023-03-05T11:36:55.602Z,18.60
2023-03-05T11:39:24.538Z,16.80
2023-03-05T11:41:59.318Z,22.60
2023-03-05T11:44:31.022Z,19.70
2023-03-05T11:47:23.873Z,20.80
2023-03-05T11:50:17.498Z,23.40
2023-03-05T11:52:49.870Z,22.00
2023-03-05T11:55:30.376Z,19.30
2023-03-05T11:58:25.146Z,19.10
2023-03-05T12:00:52.443Z,19.20
2023-03-05T12:03:23.729Z,21.30
2023-03-05T12:05:56.506Z,25.30
2023-03-05T12:08:37.684Z,20.90
2023-03-05T12:11:15.187Z,20.80
2023-03-05T12:13:49.030Z,18.30
2023-03-05T12:16:43.893Z,19.60
2023-03-05T12:19:28.557Z,17.50
2023-03-05T12:21:55.778Z,14.00
2023-03-05T12:24:28.010Z,12.80
2023-03-05T12:27:04.564Z,16.20
2023-03-05T12:29:38.757Z,15.40
2023-03-05T12:32:29.113Z,17.40
2023-03-05T12:34:57.357Z,15.60
2023-03-05T12:37:24.021Z,14.70
2023-03-05T12:40:01.207Z,15.30
2023-03-05T12:42:31.421Z,15.80
2023-03-05T12:45:12.611Z,16.30
2023-03-05T12:47:44.389Z,20.20
2023-03-05T12:50:28.189Z,15.20
2023-03-05T12:52:55.994Z,14.10
2023-03-05T12:55:40.943Z,13.60
2023-03-05T12:58:16.127Z,16.80
2023-03-05T13:00:44.966Z,15.40
2023-03-05T13:03:18.995Z,13.20
2023-03-05T13:05:54.976Z,14.50
2023-03-05T13:08:28.973Z,16.20
2023-03-05T13:11:00.816Z,13.10
2023-03-05T13:13:32.213Z,21.90
2023-03-05T13:16:02.957Z,17.30
2023-03-05T13:18:32.978Z,19.20
2023-03-05T13:21:17.836Z,19.20
2023-03-05T13:23:57.852Z,18.50
2023-03-05T13:29:28.472Z,17.60
2023-03-05T13:32:02.594Z,14.90
2023-03-05T13:34:47.349Z,16.80
2023-03-05T13:37:20.624Z,14.00
2023-03-05T13:40:07.816Z,15.30
2023-03-05T13:42:37.088Z,18.80
2023-03-05T13:45:06.779Z,17.20
2023-03-05T13:47:35.948Z,17.20
2023-03-05T13:50:09.055Z,15.80
2023-03-05T13:52:37.912Z,14.50
2023-03-05T13:55:13.219Z,19.40
2023-03-05T13:57:43.153Z,14.30
2023-03-05T14:02:51.421Z,19.10
2023-03-05T14:05:18.804Z,15.40
2023-03-05T14:07:49.734Z,15.80
2023-03-05T14:10:30.917Z,20.60
2023-03-05T14:12:59.903Z,20.90
2023-03-05T14:15:30.035Z,22.20
2023-03-05T14:18:12.454Z,20.20
2023-03-05T14:21:03.569Z,21.40
2023-03-05T14:23:40.963Z,22.90
2023-03-05T14:26:24.159Z,21.70
2023-03-05T14:28:58.198Z,22.10
2023-03-05T14:31:27.240Z,21.50
2023-03-05T14:34:00.973Z,19.30
2023-03-05T14:36:29.717Z,24.30
2023-03-05T14:38:57.099Z,21.00
2023-03-05T14:41:40.439Z,24.50
2023-03-05T14:44:26.627Z,21.20
2023-03-05T14:46:53.438Z,21.80
2023-03-05T14:49:20.181Z,22.60
2023-03-05T14:51:47.515Z,19.40
2023-03-05T14:54:26.425Z,20.50
2023-03-05T14:56:53.292Z,22.30
2023-03-05T14:59:21.873Z,21.50
2023-03-05T15:01:50.711Z,19.80
2023-03-05T15:04:19.818Z,20.60
2023-03-05T15:06:51.016Z,23.70
2023-03-05T15:09:19.823Z,19.00
2023-03-05T15:11:47.670Z,19.10
2023-03-05T15:14:14.429Z,16.70
2023-03-05T15:16:43.828Z,16.10
2023-03-05T15:19:13.163Z,21.00
2023-03-05T15:21:40.138Z,17.20
2023-03-05T15:24:07.759Z,16.20
2023-03-05T15:26:37.269Z,15.40
2023-03-05T15:29:04.138Z,17.00
2023-03-05T15:31:35.344Z,21.10
2023-03-05T15:34:02.074Z,20.30
2023-03-05T15:36:28.841Z,15.10
2023-03-05T15:38:55.674Z,16.80
2023-03-05T15:41:22.443Z,18.30
2023-03-05T15:43:49.179Z,21.00
2023-03-05T15:46:15.943Z,20.60
2023-03-05T15:48:47.961Z,23.10
2023-03-05T15:51:14.667Z,19.30
2023-03-05T15:53:41.653Z,22.70
2023-03-05T15:56:13.858Z,20.10
2023-03-05T15:58:43.413Z,20.90
2023-03-05T16:01:13.336Z,19.40
2023-03-05T16:03:40.204Z,22.00
2023-03-05T16:06:09.301Z,25.30
2023-03-05T16:08:37.209Z,23.80
2023-03-05T16:11:05.003Z,24.50
2023-03-05T16:13:33.468Z,22.50
2023-03-05T16:16:01.772Z,24.80
2023-03-05T16:18:31.599Z,25.80
2023-03-05T16:23:25.941Z,19.40
2023-03-05T16:25:52.727Z,18.70
2023-03-05T16:28:19.706Z,21.80
2023-03-05T16:30:53.478Z,23.10
2023-03-05T16:33:20.232Z,17.50
2023-03-05T16:35:48.778Z,17.90
2023-03-05T16:38:15.934Z,21.20
2023-03-05T16:41:06.944Z,19.10
2023-03-05T16:43:29.367Z,19.40
2023-03-05T16:45:56.659Z,18.40
2023-03-05T16:48:23.381Z,21.00
2023-03-05T16:50:50.047Z,24.90
2023-03-05T16:53:16.925Z,19.80
2023-03-05T16:55:43.757Z,21.70
2023-03-05T16:58:10.494Z,18.20
2023-03-05T17:00:37.265Z,21.70
2023-03-05T17:03:04.158Z,21.60
2023-03-05T17:05:31.025Z,20.50
2023-03-05T17:07:57.743Z,20.00
2023-03-05T17:10:24.626Z,22.60
2023-03-05T17:12:52.880Z,19.80
2023-03-05T17:15:19.609Z,19.00
2023-03-05T17:17:46.845Z,21.90
2023-03-05T17:20:14.193Z,21.90
2023-03-05T17:22:41.001Z,21.80
2023-03-05T17:25:08.708Z,22.40
2023-03-05T17:27:37.191Z,20.90
2023-03-05T17:30:05.175Z,22.80
2023-03-05T17:32:32.171Z,18.20
2023-03-05T17:34:58.943Z,21.50
2023-03-05T17:37:26.311Z,22.40
2023-03-05T17:39:53.733Z,21.50
2023-03-05T17:42:20.696Z,20.50
2023-03-05T17:47:15.313Z,23.20
2023-03-05T17:49:42.344Z,21.10
2023-03-05T17:52:09.074Z,20.40
2023-03-05T17:54:35.846Z,24.80
2023-03-05T17:57:02.584Z,20.40
2023-03-05T17:59:29.298Z,24.70
2023-03-05T18:01:56.092Z,26.00
2023-03-05T18:04:23.009Z,23.70
2023-03-05T18:06:49.769Z,21.20
2023-03-05T18:09:16.676Z,24.20
2023-03-05T18:11:43.606Z,26.50
2023-03-05T18:14:10.356Z,25.40
2023-03-05T18:16:37.330Z,25.90
2023-03-05T18:19:04.332Z,20.20
2023-03-05T18:21:31.058Z,21.20
2023-03-05T18:23:58.152Z,22.30
2023-03-05T18:26:25.084Z,22.40
2023-03-05T18:28:53.679Z,19.10
2023-03-05T18:31:24.839Z,17.60
2023-03-05T18:33:53.314Z,18.50
2023-03-05T18:36:20.514Z,25.60
2023-03-05T18:38:47.248Z,25.20
2023-03-05T18:41:55.019Z,23.80
2023-03-05T18:44:25.221Z,27.30
2023-03-05T18:46:52.012Z,24.10
2023-03-05T18:49:19.701Z,24.50
2023-03-05T18:51:46.771Z,26.70
2023-03-05T18:54:17.014Z,24.20
2023-03-05T19:00:49.550Z,22.10
2023-03-05T19:03:21.789Z,23.90
2023-03-05T19:05:51.299Z,25.60
2023-03-05T19:08:18.311Z,24.00
2023-03-05T19:10:45.393Z,23.60
2023-03-05T19:13:35.129Z,23.70
2023-03-05T19:16:22.812Z,23.80
2023-03-05T19:19:25.558Z,24.60
2023-03-05T19:21:57.107Z,22.60
2023-03-05T19:24:25.588Z,20.00
2023-03-05T19:26:55.511Z,20.70
2023-03-05T19:29:28.508Z,18.10
2023-03-05T19:31:55.215Z,22.20
2023-03-05T19:34:21.982Z,20.60
2023-03-05T19:36:48.877Z,20.90
2023-03-05T19:39:16.281Z,20.40
2023-03-05T19:41:43.326Z,21.80
2023-03-05T19:44:53.377Z,22.80
2023-03-05T19:48:06.967Z,21.90
2023-03-05T19:51:14.189Z,22.70
2023-03-05T19:53:42.777Z,27.70
2023-03-05T19:56:31.546Z,25.20
2023-03-05T19:59:58.134Z,29.60
2023-03-05T20:03:25.557Z,25.50
2023-03-05T20:06:34.084Z,25.60
2023-03-05T20:09:01.305Z,25.80
2023-03-05T20:11:28.531Z,23.70
2023-03-05T20:13:55.927Z,24.70
2023-03-05T20:16:26.249Z,23.50
2023-03-05T20:18:55.233Z,25.80
2023-03-05T20:21:28.405Z,25.20
2023-03-05T20:23:58.348Z,23.30
2023-03-05T20:28:57.402Z,18.10
2023-03-05T20:31:26.699Z,17.50
2023-03-05T20:33:55.572Z,17.80
2023-03-05T20:36:23.869Z,17.80
2023-03-05T20:38:50.861Z,17.20
2023-03-05T20:41:20.911Z,18.30
2023-03-05T20:43:50.635Z,18.20
2023-03-05T21:02:56.692Z,21.10
2023-03-05T21:05:30.526Z,18.30
2023-03-05T21:08:00.127Z,19.60
2023-03-05T21:10:27.930Z,17.60
2023-03-05T21:12:55.297Z,19.20
2023-03-05T21:15:25.277Z,17.60
2023-03-05T21:17:52.736Z,18.30
2023-03-05T21:20:27.883Z,18.20
2023-03-05T21:22:58.707Z,16.10
2023-03-05T21:25:30.658Z,22.10
2023-03-05T21:28:06.726Z,18.80
2023-03-05T21:30:39.927Z,16.80
2023-03-05T21:33:09.439Z,15.10
2023-03-05T21:35:37.024Z,15.20
2023-03-05T21:38:05.554Z,15.60
2023-03-05T21:40:33.820Z,16.60
2023-03-05T21:43:00.636Z,16.60
2023-03-05T21:45:29.754Z,15.00
2023-03-05T21:47:59.120Z,15.40
2023-03-05T21:50:26.923Z,15.30
2023-03-05T21:52:53.922Z,20.20
2023-03-05T21:55:30.710Z,17.30
2023-03-05T21:57:57.664Z,15.40
2023-03-05T22:00:24.623Z,17.00
2023-03-05T22:02:51.962Z,19.50
2023-03-05T22:05:19.335Z,20.90
2023-03-05T22:07:46.289Z,22.70
2023-03-05T22:10:17.025Z,20.10
2023-03-05T22:13:06.808Z,19.50
2023-03-05T22:15:34.559Z,23.20
2023-03-05T22:18:09.394Z,18.60
2023-03-05T22:20:36.631Z,19.10
2023-03-05T22:23:08.758Z,20.10
2023-03-05T22:25:59.482Z,19.50
2023-03-05T22:29:35.174Z,19.90
2023-03-05T22:32:23.305Z,17.40
2023-03-05T22:35:08.071Z,19.60
2023-03-05T22:37:53.928Z,20.00
2023-03-05T22:48:23.024Z,20.60
2023-03-05T22:50:55.872Z,18.80
2023-03-05T22:53:22.780Z,17.40
2023-03-05T22:55:50.629Z,20.80
2023-03-05T22:58:17.564Z,23.80
2023-03-05T23:00:44.526Z,20.20
2023-03-05T23:03:11.396Z,23.10
2023-03-05T23:05:39.739Z,20.90
2023-03-05T23:08:07.079Z,19.60
2023-03-05T23:10:34.518Z,21.20
2023-03-05T23:13:02.063Z,19.70
2023-03-05T23:15:34.541Z,18.40
2023-03-05T23:18:02.042Z,21.70
2023-03-05T23:20:32.586Z,20.00
2023-03-05T23:22:59.822Z,24.40
2023-03-05T23:25:30.182Z,20.40
2023-03-05T23:28:00.678Z,17.20
2023-03-05T23:30:33.214Z,16.70
2023-03-05T23:33:20.688Z,15.80
2023-03-05T23:35:53.940Z,18.10
2023-03-05T23:38:21.462Z,17.90
2023-03-05T23:40:50.920Z,17.60
2023-03-05T23:43:19.125Z,18.70
2023-03-05T23:45:50.282Z,17.00
2023-03-05T23:48:18.077Z,18.50
2023-03-05T23:50:48.003Z,20.90
2023-03-05T23:55:47.545Z,19.00
2023-03-05T23:58:15.117Z,22.40
